Time;durP1;ratioP1;P1;durP2;ratioP2;P2;SDS_P1;SDS_P2;PMS_P1;PMS_P2;Temp;Humidity;BMP_temperature;BMP_pressure;BME280_temperature;BME280_humidity;BME280_pressure;Samples;Min_cycle;Max_cycle;Signal;HPM_P1;HPM_P2
2022/01/08 00:00:07;;;;;;;5.82;1.50;;;1.50;99.90;;;;;;5053054;28;20049;-81
2022/01/08 00:02:33;;;;;;;5.55;1.30;;;1.50;99.90;;;;;;5072310;28;20044;-80
2022/01/08 00:05:00;;;;;;;5.28;1.17;;;1.60;99.90;;;;;;5073596;28;20124;-79
2022/01/08 00:07:26;;;;;;;4.38;1.30;;;1.60;99.90;;;;;;5073673;28;20375;-79
2022/01/08 00:09:52;;;;;;;;;;;1.60;99.90;;;;;;5073018;28;20037;-80
2022/01/08 00:12:18;;;;;;;4.22;1.40;;;1.60;99.90;;;;;;5055032;28;19921;-79
2022/01/08 00:14:43;;;;;;;3.15;1.30;;;1.60;99.90;;;;;;5054560;28;20040;-79
2022/01/08 00:17:09;;;;;;;4.87;1.37;;;1.60;99.90;;;;;;5070822;28;20079;-80
2022/01/08 00:19:34;;;;;;;1.77;1.10;;;1.60;99.90;;;;;;5055591;28;20113;-79
2022/01/08 00:22:00;;;;;;;4.28;1.02;;;1.70;99.90;;;;;;5056383;28;20078;-80
2022/01/08 00:24:26;;;;;;;3.40;1.20;;;1.60;99.90;;;;;;5073706;28;20072;-79
2022/01/08 00:26:52;;;;;;;4.90;1.80;;;1.70;99.90;;;;;;5037688;28;20083;-80
2022/01/08 00:29:17;;;;;;;4.10;1.00;;;1.60;99.90;;;;;;5069297;28;20092;-79
2022/01/08 00:31:43;;;;;;;5.60;2.30;;;1.60;99.90;;;;;;5054029;28;20045;-80
2022/01/08 00:34:09;;;;;;;6.77;1.30;;;1.60;99.90;;;;;;5054257;28;20077;-81
2022/01/08 00:36:34;;;;;;;6.25;1.15;;;1.50;99.90;;;;;;5040915;28;20340;-79
2022/01/08 00:39:00;;;;;;;2.70;1.10;;;1.60;99.90;;;;;;5056904;28;20456;-79
2022/01/08 00:41:26;;;;;;;2.53;1.00;;;1.50;99.90;;;;;;5056174;28;20720;-79
2022/01/08 00:43:52;;;;;;;3.30;1.20;;;1.50;99.90;;;;;;5056215;28;20041;-80
2022/01/08 00:46:18;;;;;;;1.75;0.98;;;1.40;99.90;;;;;;5072284;28;20055;-79
2022/01/08 00:48:44;;;;;;;3.13;1.30;;;1.30;99.90;;;;;;5049377;28;20404;-79
2022/01/08 00:51:11;;;;;;;4.25;1.10;;;1.30;99.90;;;;;;5071384;28;20048;-79
2022/01/08 00:53:37;;;;;;;4.13;1.30;;;1.30;99.90;;;;;;5036814;28;20051;-79
2022/01/08 00:56:03;;;;;;;3.33;1.60;;;1.30;99.90;;;;;;5053390;28;20041;-80
2022/01/08 00:58:29;;;;;;;4.45;1.55;;;1.30;99.90;;;;;;5052986;28;20044;-80
2022/01/08 01:00:54;;;;;;;3.15;1.35;;;1.20;99.90;;;;;;5069372;28;20373;-80
2022/01/08 01:03:20;;;;;;;5.10;1.80;;;1.20;99.90;;;;;;5054102;28;20097;-80
2022/01/08 01:05:46;;;;;;;4.20;1.53;;;1.20;99.90;;;;;;5052478;28;20136;-80
2022/01/08 01:08:12;;;;;;;5.07;1.70;;;1.20;99.90;;;;;;5037264;28;20280;-80
2022/01/08 01:10:39;;;;;;;4.80;1.90;;;1.30;99.90;;;;;;5070371;28;20177;-79
2022/01/08 01:13:04;;;;;;;3.95;2.22;;;1.30;99.90;;;;;;5053093;28;20037;-80
2022/01/08 01:15:30;;;;;;;4.77;2.00;;;1.40;99.90;;;;;;5053367;28;20055;-80
2022/01/08 01:17:56;;;;;;;5.15;2.28;;;1.40;99.90;;;;;;5064596;28;20789;-80
2022/01/08 01:20:22;;;;;;;5.63;1.85;;;1.50;99.90;;;;;;5054796;28;20127;-73
2022/01/08 01:25:20;;;;;;;4.07;2.05;;;1.40;99.90;;;;;;5051284;28;20049;-73
2022/01/08 01:30:57;;;;;;;7.70;2.75;;;1.50;99.90;;;;;;5049346;28;20138;-73
2022/01/08 01:47:04;;;;;;;4.80;2.20;;;1.50;99.90;;;;;;5060609;28;20052;-73
2022/01/08 01:49:37;;;;;;;6.63;2.33;;;1.50;99.90;;;;;;5069632;28;20040;-72
2022/01/08 01:52:05;;;;;;;5.07;2.03;;;1.50;99.90;;;;;;5053549;28;20425;-72
2022/01/08 01:54:32;;;;;;;6.75;2.15;;;1.50;99.90;;;;;;5067298;28;20049;-72
2022/01/08 01:57:00;;;;;;;8.30;3.10;;;1.50;99.90;;;;;;5048501;28;20056;-72
2022/01/08 01:59:27;;;;;;;4.10;2.08;;;1.60;99.90;;;;;;5045093;28;20051;-73
2022/01/08 02:01:53;;;;;;;2.80;1.50;;;1.60;99.90;;;;;;5074936;28;20068;-80
2022/01/08 02:04:18;;;;;;;6.93;2.25;;;1.60;99.90;;;;;;5076446;28;20045;-80
2022/01/08 02:06:44;;;;;;;5.45;1.80;;;1.60;99.90;;;;;;5058952;28;20803;-80
2022/01/08 02:09:10;;;;;;;3.90;2.47;;;1.60;99.90;;;;;;5075743;28;20037;-81
2022/01/08 02:11:55;;;;;;;8.48;2.10;;;1.60;99.90;;;;;;5075817;28;20043;-81
2022/01/08 02:14:21;;;;;;;7.82;2.42;;;1.60;99.90;;;;;;5075553;28;20056;-81
2022/01/08 02:16:47;;;;;;;3.83;1.63;;;1.60;99.90;;;;;;5075353;28;20345;-80
2022/01/08 02:19:13;;;;;;;4.35;1.90;;;1.60;99.90;;;;;;5075494;28;20484;-80
2022/01/08 02:21:38;;;;;;;3.85;1.95;;;1.70;99.90;;;;;;5058601;28;20044;-81
2022/01/08 02:24:05;;;;;;;3.60;1.70;;;1.60;99.90;;;;;;5041528;28;20148;-81
2022/01/08 02:26:31;;;;;;;3.38;1.65;;;1.60;99.90;;;;;;5074699;28;20045;-81
2022/01/08 02:28:56;;;;;;;4.60;2.00;;;1.50;99.90;;;;;;5074963;28;20131;-80
2022/01/08 02:31:27;;;;;;;3.83;1.70;;;1.50;99.90;;;;;;5058414;28;20347;-81
2022/01/08 02:33:54;;;;;;;4.07;1.90;;;1.50;99.90;;;;;;5058640;28;20287;-81
2022/01/08 02:36:19;;;;;;;4.90;1.90;;;1.50;99.90;;;;;;5074947;28;20484;-81
2022/01/08 02:38:46;;;;;;;5.72;2.22;;;1.40;99.90;;;;;;5041641;28;20044;-81
2022/01/08 02:41:12;;;;;;;4.25;1.60;;;1.40;99.90;;;;;;5074959;28;20399;-81
2022/01/08 02:43:44;;;;;;;3.85;1.50;;;1.40;99.90;;;;;;5075546;28;20040;-81
2022/01/08 02:46:10;;;;;;;2.95;1.45;;;1.40;99.90;;;;;;5072876;28;20040;-81
2022/01/08 02:48:36;;;;;;;3.67;1.45;;;1.40;99.90;;;;;;5074758;28;20067;-81
2022/01/08 02:51:02;;;;;;;5.20;1.70;;;1.30;99.90;;;;;;5068088;28;20105;-81
2022/01/08 02:53:28;;;;;;;2.25;1.25;;;1.30;99.90;;;;;;5075460;28;20029;-80
2022/01/08 02:55:54;;;;;;;1.73;0.90;;;1.40;99.90;;;;;;5058496;28;20463;-81
2022/01/08 02:58:25;;;;;;;3.50;1.17;;;1.40;99.90;;;;;;5072011;28;20289;-81
2022/01/08 03:00:58;;;;;;;3.42;1.38;;;1.30;99.90;;;;;;5057323;28;20047;-80
2022/01/08 03:03:24;;;;;;;3.00;1.00;;;1.30;99.90;;;;;;5053220;28;20052;-80
2022/01/08 03:05:50;;;;;;;2.28;1.10;;;1.20;99.90;;;;;;5071017;28;20040;-80
2022/01/08 03:08:16;;;;;;;1.90;0.80;;;1.20;99.90;;;;;;5065109;28;20036;-80
2022/01/08 03:10:42;;;;;;;2.60;1.17;;;1.00;99.90;;;;;;5041750;28;20044;-80
2022/01/08 03:13:08;;;;;;;3.80;1.45;;;1.00;99.90;;;;;;5072563;28;20044;-73
2022/01/08 03:15:36;;;;;;;2.75;1.20;;;1.00;99.90;;;;;;5053950;28;20047;-73
2022/01/08 03:18:03;;;;;;;2.25;1.27;;;0.90;99.90;;;;;;5051447;28;20041;-73
2022/01/08 03:20:30;;;;;;;4.15;1.30;;;0.90;99.90;;;;;;5051161;28;20091;-73
2022/01/08 03:23:02;;;;;;;2.55;1.10;;;0.90;99.90;;;;;;5067584;28;20037;-73
2022/01/08 03:25:29;;;;;;;3.67;1.42;;;0.90;99.90;;;;;;5085183;28;20068;-73
2022/01/08 03:27:54;;;;;;;2.08;1.00;;;1.00;99.90;;;;;;5052516;28;20040;-73
2022/01/08 03:30:21;;;;;;;3.33;1.40;;;0.90;99.90;;;;;;5067635;28;20105;-73
2022/01/08 03:32:46;;;;;;;4.82;1.40;;;0.90;99.90;;;;;;5067890;28;20055;-73
2022/01/08 03:35:12;;;;;;;2.10;0.95;;;0.90;99.90;;;;;;5054388;28;20052;-73
2022/01/08 03:37:38;;;;;;;3.08;1.20;;;0.90;99.90;;;;;;5054778;28;20049;-73
2022/01/08 03:40:06;;;;;;;3.70;1.00;;;0.90;99.90;;;;;;5069824;28;20094;-73
2022/01/08 03:42:32;;;;;;;3.38;0.93;;;0.90;99.90;;;;;;5069845;28;20044;-73
2022/01/08 03:44:58;;;;;;;;;;;0.80;99.90;;;;;;5054246;28;20073;-73
2022/01/08 03:49:53;;;;;;;4.10;1.30;;;0.90;99.90;;;;;;5061003;28;20484;-73
2022/01/08 03:52:20;;;;;;;3.92;0.93;;;0.80;99.90;;;;;;5043311;28;20053;-73
2022/01/08 03:54:45;;;;;;;1.40;1.00;;;0.90;99.90;;;;;;5054560;28;20033;-73
2022/01/08 03:57:11;;;;;;;5.70;1.20;;;0.90;99.90;;;;;;5038389;28;20506;-73
2022/01/08 03:59:37;;;;;;;2.08;0.90;;;0.90;99.90;;;;;;5053094;28;20033;-73
2022/01/08 04:02:03;;;;;;;2.22;1.00;;;0.90;99.90;;;;;;5056042;28;20032;-73
2022/01/08 04:04:29;;;;;;;3.28;1.17;;;0.80;99.90;;;;;;5076592;28;20128;-73
2022/01/08 04:06:55;;;;;;;4.65;1.15;;;0.90;99.90;;;;;;5059281;28;20510;-73
2022/01/08 04:09:21;;;;;;;2.58;1.17;;;0.90;99.90;;;;;;5055999;28;20036;-73
2022/01/08 04:11:47;;;;;;;5.47;1.83;;;0.90;99.90;;;;;;5069544;28;20708;-73
2022/01/08 04:14:14;;;;;;;3.83;1.23;;;0.90;99.90;;;;;;5096880;28;20037;-73
2022/01/08 04:16:44;;;;;;;4.53;1.20;;;0.90;99.90;;;;;;5053950;28;20434;-74
2022/01/08 04:19:10;;;;;;;3.88;1.08;;;1.00;99.90;;;;;;5069026;28;20399;-73
2022/01/08 04:24:07;;;;;;;3.72;1.30;;;1.20;99.90;;;;;;5058083;28;20041;-74
2022/01/08 04:26:33;;;;;;;2.80;0.82;;;1.10;99.90;;;;;;5049307;28;20060;-74
2022/01/08 04:28:59;;;;;;;2.45;0.85;;;1.20;99.90;;;;;;5043273;28;20041;-74
2022/01/08 04:31:25;;;;;;;3.03;1.13;;;1.20;99.90;;;;;;5068400;28;20108;-74
2022/01/08 04:33:53;;;;;;;4.03;1.40;;;1.30;99.90;;;;;;5099032;28;20043;-74
2022/01/08 04:36:19;;;;;;;3.30;1.35;;;1.20;99.90;;;;;;5062291;28;20507;-74
2022/01/08 04:38:45;;;;;;;3.35;1.20;;;1.40;99.90;;;;;;5055488;28;20487;-74
2022/01/08 04:41:11;;;;;;;3.78;1.30;;;1.40;99.90;;;;;;5076328;28;20093;-73
2022/01/08 04:43:38;;;;;;;5.05;2.00;;;1.40;99.90;;;;;;5035289;28;20083;-74
2022/01/08 04:46:06;;;;;;;4.65;1.45;;;1.50;99.90;;;;;;5051370;28;20242;-74
2022/01/08 04:48:32;;;;;;;5.28;1.40;;;1.50;99.90;;;;;;5066782;28;20411;-74
2022/01/08 04:50:58;;;;;;;7.97;1.63;;;1.60;99.90;;;;;;5065795;28;20044;-74
2022/01/08 04:53:23;;;;;;;6.00;1.98;;;1.60;99.90;;;;;;5048907;28;20041;-74
2022/01/08 04:55:49;;;;;;;3.42;1.60;;;1.70;99.90;;;;;;5067122;28;20052;-74
2022/01/08 04:58:14;;;;;;;5.95;1.35;;;1.60;99.90;;;;;;5057678;28;20505;-74
2022/01/08 05:00:41;;;;;;;5.10;1.40;;;1.60;99.90;;;;;;5062665;28;20050;-74
2022/01/08 05:03:06;;;;;;;7.18;1.77;;;1.60;99.90;;;;;;5049235;28;20097;-74
2022/01/08 05:05:32;;;;;;;4.32;1.40;;;1.70;99.90;;;;;;5051139;28;20206;-74
2022/01/08 05:07:58;;;;;;;4.93;1.20;;;1.60;99.90;;;;;;5032307;28;20036;-74
2022/01/08 05:10:24;;;;;;;4.78;1.33;;;1.60;99.90;;;;;;5041093;28;20056;-74
2022/01/08 05:12:50;;;;;;;2.30;0.88;;;1.70;99.90;;;;;;5056898;28;20445;-74
2022/01/08 05:15:17;;;;;;;4.80;1.20;;;1.70;99.90;;;;;;5057467;28;20077;-74
2022/01/08 05:17:45;;;;;;;1.70;1.08;;;1.60;99.90;;;;;;5066917;28;20045;-74
2022/01/08 05:20:12;;;;;;;2.95;1.15;;;1.60;99.90;;;;;;5023143;28;20432;-74
2022/01/08 05:22:59;;;;;;;4.35;1.27;;;1.60;99.90;;;;;;5053769;28;20032;-74
2022/01/08 05:25:26;;;;;;;5.93;1.30;;;1.60;99.90;;;;;;5068357;28;20044;-74
2022/01/08 05:27:52;;;;;;;6.35;1.40;;;1.50;99.90;;;;;;5065664;28;20063;-74
2022/01/08 05:30:21;;;;;;;5.22;1.77;;;1.60;99.90;;;;;;5056040;28;20091;-74
2022/01/08 05:32:49;;;;;;;3.45;1.65;;;1.50;99.90;;;;;;5087916;28;20494;-74
2022/01/08 05:35:15;;;;;;;4.20;1.30;;;1.50;99.90;;;;;;5077071;28;20057;-74
2022/01/08 05:37:41;;;;;;;3.33;1.38;;;1.60;99.90;;;;;;5063761;28;20044;-74
2022/01/08 05:40:08;;;;;;;2.53;1.35;;;1.60;99.90;;;;;;5066604;28;20052;-74
2022/01/08 05:42:33;;;;;;;;;;;1.50;99.90;;;;;;5056996;28;20051;-74
2022/01/08 05:44:59;;;;;;;6.00;1.30;;;1.50;99.90;;;;;;5065922;28;19917;-74
2022/01/08 05:47:29;;;;;;;3.97;1.20;;;1.50;99.90;;;;;;5070301;28;20128;-74
2022/01/08 05:49:55;;;;;;;3.90;1.13;;;1.50;99.90;;;;;;5052282;28;20290;-74
2022/01/08 05:52:21;;;;;;;6.15;1.20;;;1.50;99.90;;;;;;5067687;28;20094;-74
2022/01/08 05:54:47;;;;;;;4.40;1.30;;;1.50;99.90;;;;;;5059749;28;20502;-74
2022/01/08 05:57:12;;;;;;;2.00;1.02;;;1.50;99.90;;;;;;5067110;28;20036;-74
2022/01/08 05:59:38;;;;;;;3.33;1.03;;;1.40;99.90;;;;;;5066702;28;20589;-74
2022/01/08 06:02:05;;;;;;;3.33;1.05;;;1.40;99.90;;;;;;5050325;28;20386;-74
2022/01/08 06:04:31;;;;;;;2.92;1.10;;;1.30;99.90;;;;;;5031868;28;20411;-74
2022/01/08 06:06:57;;;;;;;2.67;0.90;;;1.30;99.90;;;;;;5096080;28;20056;-75
2022/01/08 06:09:22;;;;;;;4.43;1.23;;;1.20;99.90;;;;;;5057430;28;20067;-75
2022/01/08 06:11:48;;;;;;;2.67;1.15;;;1.20;99.90;;;;;;5037869;28;20084;-74
2022/01/08 06:14:14;;;;;;;4.25;1.27;;;1.20;99.90;;;;;;5066575;28;20052;-74
2022/01/08 06:16:39;;;;;;;4.90;1.55;;;1.10;99.90;;;;;;5079014;28;20069;-74
2022/01/08 06:19:09;;;;;;;4.90;1.50;;;1.10;99.90;;;;;;5084278;28;20036;-74
2022/01/08 06:21:34;;;;;;;3.72;1.70;;;1.10;99.90;;;;;;5044968;28;20323;-75
2022/01/08 06:24:00;;;;;;;4.70;2.17;;;1.10;99.90;;;;;;5065414;28;20083;-74
2022/01/08 06:26:26;;;;;;;3.03;1.35;;;1.10;99.90;;;;;;5067602;28;20484;-74
2022/01/08 06:28:52;;;;;;;4.07;1.60;;;1.00;99.90;;;;;;5064574;28;20033;-75
2022/01/08 06:31:22;;;;;;;4.28;1.88;;;1.00;99.90;;;;;;5058709;28;20296;-75
2022/01/08 06:33:48;;;;;;;4.55;1.83;;;1.00;99.90;;;;;;5060385;28;20105;-75
2022/01/08 06:36:17;;;;;;;;;;;1.00;99.90;;;;;;5061265;28;20055;-74
2022/01/08 06:38:43;;;;;;;3.97;2.20;;;1.00;99.90;;;;;;5043024;28;19959;-75
2022/01/08 06:41:09;;;;;;;5.22;1.90;;;0.90;99.90;;;;;;5060767;28;20475;-75
2022/01/08 06:43:35;;;;;;;3.75;2.35;;;0.90;99.90;;;;;;5050287;28;20041;-74
2022/01/08 06:46:01;;;;;;;8.25;2.70;;;0.80;99.90;;;;;;5063755;28;20152;-74
2022/01/08 06:48:26;;;;;;;9.10;3.28;;;0.90;99.90;;;;;;5039148;28;20037;-74
2022/01/08 06:50:52;;;;;;;7.50;3.13;;;0.90;99.90;;;;;;5070074;28;20128;-74
2022/01/08 06:53:18;;;;;;;7.40;2.95;;;0.90;99.90;;;;;;5098914;28;20070;-74
2022/01/08 06:55:44;;;;;;;8.70;4.05;;;0.90;99.90;;;;;;5069161;28;20070;-74
2022/01/08 06:58:10;;;;;;;9.15;3.53;;;0.90;99.90;;;;;;5055159;28;20048;-74
2022/01/08 07:00:36;;;;;;;5.25;2.65;;;0.90;99.90;;;;;;5052606;28;20507;-74
2022/01/08 07:03:02;;;;;;;7.80;3.47;;;0.90;99.90;;;;;;5070863;28;20028;-74
2022/01/08 07:05:28;;;;;;;6.30;3.30;;;0.90;99.90;;;;;;5054894;28;20182;-74
2022/01/08 07:07:54;;;;;;;6.60;2.72;;;0.80;99.90;;;;;;5053191;28;20075;-73
2022/01/08 07:10:20;;;;;;;7.85;3.40;;;0.80;99.90;;;;;;5065135;28;20051;-74
2022/01/08 07:12:45;;;;;;;8.27;3.60;;;0.80;99.90;;;;;;5056394;28;20040;-74
2022/01/08 07:15:12;;;;;;;7.25;3.40;;;0.80;99.90;;;;;;5062235;28;20051;-74
2022/01/08 07:17:39;;;;;;;9.48;4.18;;;0.80;99.90;;;;;;5056361;28;20515;-74
2022/01/08 07:20:05;;;;;;;;;;;0.90;99.90;;;;;;5055644;28;20041;-74
2022/01/08 07:22:31;;;;;;;8.38;3.88;;;0.80;99.90;;;;;;5053828;28;20458;-74
2022/01/08 07:24:56;;;;;;;11.02;4.10;;;0.90;99.90;;;;;;5053116;28;20056;-73
2022/01/08 07:27:22;;;;;;;9.07;3.40;;;0.90;99.90;;;;;;5071304;28;20054;-73
2022/01/08 07:29:48;;;;;;;6.40;3.70;;;0.80;99.90;;;;;;5053541;28;20291;-74
2022/01/08 07:32:13;;;;;;;7.97;3.67;;;0.80;99.90;;;;;;5045976;28;20490;-74
2022/01/08 07:34:39;;;;;;;7.78;3.53;;;0.90;99.90;;;;;;5055856;28;20400;-73
2022/01/08 07:37:05;;;;;;;7.57;3.45;;;0.90;99.90;;;;;;5078264;28;20051;-74
2022/01/08 07:39:31;;;;;;;12.15;3.88;;;1.00;99.90;;;;;;5056013;28;20040;-73
2022/01/08 07:41:56;;;;;;;7.30;3.72;;;1.00;99.90;;;;;;5054031;28;20079;-73
2022/01/08 07:44:22;;;;;;;6.53;3.58;;;0.90;99.90;;;;;;5065309;28;20040;-72
2022/01/08 07:46:48;;;;;;;5.10;2.85;;;1.00;99.90;;;;;;5044535;28;20123;-73
2022/01/08 07:49:13;;;;;;;8.18;3.05;;;0.90;99.90;;;;;;5062020;28;20064;-73
2022/01/08 07:51:39;;;;;;;8.75;3.42;;;1.00;99.90;;;;;;5058690;28;20416;-72
2022/01/08 07:54:05;;;;;;;6.53;3.05;;;1.00;99.90;;;;;;5048803;28;20079;-72
2022/01/08 07:56:30;;;;;;;8.65;3.63;;;1.00;99.90;;;;;;5055745;28;20536;-72
2022/01/08 07:58:56;;;;;;;9.38;3.40;;;1.00;99.90;;;;;;5059240;28;20049;-72
2022/01/08 08:01:27;;;;;;;6.78;2.95;;;1.00;99.90;;;;;;5055743;28;20102;-72
2022/01/08 08:03:53;;;;;;;6.13;2.47;;;0.90;99.90;;;;;;5057017;28;20412;-72
2022/01/08 08:06:19;;;;;;;7.45;2.60;;;0.90;99.90;;;;;;5044103;28;20029;-73
2022/01/08 08:08:44;;;;;;;7.68;2.90;;;1.00;99.90;;;;;;5072642;28;20040;-72
2022/01/08 08:11:10;;;;;;;6.37;3.00;;;0.90;99.90;;;;;;5043833;28;20518;-72
2022/01/08 08:13:36;;;;;;;6.63;2.80;;;0.90;99.90;;;;;;5042281;28;20294;-72
2022/01/08 08:16:02;;;;;;;6.00;3.00;;;0.90;99.90;;;;;;5057195;28;20463;-71
2022/01/08 08:18:28;;;;;;;7.83;3.40;;;1.10;99.90;;;;;;5040471;28;20044;-72
2022/01/08 08:20:54;;;;;;;8.02;3.38;;;1.00;99.90;;;;;;5053132;28;20371;-71
2022/01/08 08:23:19;;;;;;;8.10;3.33;;;1.20;99.90;;;;;;5061586;28;20452;-71
2022/01/08 08:25:45;;;;;;;10.00;3.45;;;1.20;99.90;;;;;;5048190;28;20051;-71
2022/01/08 08:28:11;;;;;;;11.38;3.22;;;1.20;99.90;;;;;;5050602;28;20049;-71
2022/01/08 08:30:37;;;;;;;9.25;3.05;;;1.30;99.90;;;;;;5054956;28;20380;-72
2022/01/08 08:33:03;;;;;;;7.30;3.28;;;1.40;99.90;;;;;;5049184;28;20109;-72
2022/01/08 08:35:29;;;;;;;6.68;3.10;;;1.30;99.90;;;;;;5058917;28;20091;-72
2022/01/08 08:37:55;;;;;;;7.10;3.10;;;1.30;99.90;;;;;;5063714;28;20044;-72
2022/01/08 08:40:20;;;;;;;11.55;3.00;;;1.40;99.90;;;;;;5048889;28;20036;-70
2022/01/08 08:42:46;;;;;;;9.18;3.55;;;1.50;99.90;;;;;;5061763;28;20044;-71
2022/01/08 08:45:12;;;;;;;7.70;2.78;;;1.60;99.90;;;;;;5054629;28;20056;-71
2022/01/08 08:47:39;;;;;;;5.25;2.50;;;1.50;99.90;;;;;;5059544;28;20037;-71
2022/01/08 08:50:06;;;;;;;4.45;2.90;;;1.60;99.90;;;;;;5061899;28;20048;-71
2022/01/08 08:52:33;;;;;;;6.93;2.55;;;1.60;99.90;;;;;;5057992;28;20036;-71
2022/01/08 08:54:59;;;;;;;6.95;2.65;;;1.50;99.90;;;;;;5048898;28;20126;-71
2022/01/08 08:57:25;;;;;;;4.63;2.30;;;1.60;99.90;;;;;;5059726;28;20048;-71
2022/01/08 08:59:51;;;;;;;6.47;2.53;;;1.60;99.90;;;;;;5055836;28;20045;-71
2022/01/08 09:02:17;;;;;;;7.25;2.70;;;1.60;99.90;;;;;;5066311;28;20051;-71
2022/01/08 09:04:43;;;;;;;9.23;3.25;;;1.60;99.90;;;;;;5055805;28;20105;-71
2022/01/08 09:07:09;;;;;;;7.45;2.90;;;1.60;99.90;;;;;;5060632;28;20122;-71
2022/01/08 09:09:35;;;;;;;7.45;2.85;;;1.70;99.90;;;;;;5053981;28;20065;-70
2022/01/08 09:12:02;;;;;;;8.45;3.03;;;1.80;99.90;;;;;;5084758;28;20041;-73
2022/01/08 09:14:28;;;;;;;8.88;3.13;;;1.80;99.90;;;;;;5053258;28;20147;-71
2022/01/08 09:17:02;;;;;;;7.93;2.70;;;1.80;99.90;;;;;;5058152;28;20048;-71
2022/01/08 09:19:28;;;;;;;8.05;2.80;;;1.90;99.90;;;;;;5046360;28;20125;-71
2022/01/08 09:21:54;;;;;;;10.90;3.55;;;1.90;99.90;;;;;;5061733;28;20036;-71
2022/01/08 09:24:20;;;;;;;6.95;3.03;;;2.00;99.90;;;;;;5064698;28;20427;-71
2022/01/08 09:26:48;;;;;;;8.15;3.20;;;2.10;99.90;;;;;;5064259;28;20044;-71
2022/01/08 09:29:15;;;;;;;6.10;3.15;;;2.20;99.90;;;;;;5065869;28;20136;-71
2022/01/08 09:31:41;;;;;;;6.80;3.35;;;2.20;99.90;;;;;;5034389;28;20165;-70
2022/01/08 09:34:08;;;;;;;10.50;3.40;;;2.30;99.90;;;;;;5069653;28;20040;-71
2022/01/08 09:36:35;;;;;;;8.30;2.97;;;2.40;99.90;;;;;;5048509;28;20040;-71
2022/01/08 09:39:01;;;;;;;9.57;3.00;;;2.40;99.90;;;;;;5058030;28;20041;-71
2022/01/08 09:41:27;;;;;;;7.47;2.78;;;2.40;99.90;;;;;;5066907;28;20048;-71
2022/01/08 09:43:53;;;;;;;7.68;2.75;;;2.40;99.90;;;;;;5047391;28;20051;-71
2022/01/08 09:46:21;;;;;;;11.25;3.08;;;2.50;99.90;;;;;;5075498;28;20117;-70
2022/01/08 09:48:47;;;;;;;9.95;2.80;;;2.40;99.90;;;;;;5049765;28;20068;-71
2022/01/08 09:51:13;;;;;;;;;;;2.50;99.90;;;;;;5055958;28;20044;-71
2022/01/08 09:53:39;;;;;;;6.95;2.63;;;2.50;99.90;;;;;;5042241;28;19930;-71
2022/01/08 09:56:05;;;;;;;9.23;2.85;;;2.60;99.90;;;;;;5058685;28;20041;-71
2022/01/08 09:58:32;;;;;;;9.15;2.97;;;2.60;99.90;;;;;;5052878;28;20044;-71
2022/01/08 10:00:58;;;;;;;6.28;2.70;;;2.60;99.90;;;;;;5039844;28;20048;-70
2022/01/08 10:03:32;;;;;;;6.88;2.70;;;2.70;99.90;;;;;;5047176;28;20048;-71
2022/01/08 10:05:59;;;;;;;11.23;3.10;;;2.80;99.90;;;;;;5046505;28;20036;-71
2022/01/08 10:08:27;;;;;;;10.02;2.60;;;2.90;99.90;;;;;;5062720;28;20109;-71
2022/01/08 10:10:58;;;;;;;9.13;2.88;;;2.90;99.90;;;;;;5092054;28;20055;-71
2022/01/08 10:13:39;;;;;;;7.60;2.72;;;3.00;99.90;;;;;;5065087;28;20147;-71
2022/01/08 10:18:54;;;;;;;7.10;2.28;;;3.10;99.90;;;;;;5070277;28;20558;-71
2022/01/08 10:21:24;;;;;;;5.72;2.60;;;3.10;99.90;;;;;;5056420;28;20120;-71
2022/01/08 10:23:51;;;;;;;7.82;2.47;;;3.10;99.90;;;;;;5073154;28;20032;-71
2022/01/08 10:26:20;;;;;;;11.10;2.60;;;3.10;99.90;;;;;;5054871;28;20041;-71
2022/01/08 10:28:49;;;;;;;5.60;2.80;;;3.20;99.90;;;;;;5053975;28;20044;-71
2022/01/08 10:31:25;;;;;;;9.80;2.72;;;3.20;99.90;;;;;;5081814;28;20450;-72
2022/01/08 10:34:14;;;;;;;7.68;2.78;;;3.20;99.90;;;;;;5067776;28;20036;-72
2022/01/08 10:36:45;;;;;;;9.27;3.20;;;3.20;99.90;;;;;;5042200;28;20033;-72
2022/01/08 10:39:19;;;;;;;8.40;2.85;;;3.20;99.90;;;;;;5056197;28;20451;-72
2022/01/08 10:41:46;;;;;;;7.13;2.80;;;3.20;99.90;;;;;;5055437;28;20086;-72
2022/01/08 10:44:13;;;;;;;7.78;3.42;;;3.20;99.90;;;;;;5057350;28;20861;-71
2022/01/08 10:46:55;;;;;;;6.60;2.63;;;3.20;99.90;;;;;;5094473;27;20089;-71
2022/01/08 10:49:34;;;;;;;10.00;2.92;;;3.20;99.90;;;;;;5070833;28;20048;-72
2022/01/08 10:52:04;;;;;;;10.25;3.10;;;3.20;99.90;;;;;;5063830;28;20037;-72
2022/01/08 10:54:32;;;;;;;8.82;3.30;;;3.20;99.90;;;;;;5061620;28;20153;-72
2022/01/08 10:57:02;;;;;;;9.02;3.47;;;3.20;99.90;;;;;;5039114;28;20047;-71
2022/01/08 10:59:30;;;;;;;11.45;3.40;;;3.20;99.90;;;;;;5057609;28;20049;-71
2022/01/08 11:02:00;;;;;;;9.70;3.30;;;3.10;99.90;;;;;;5060247;28;20056;-71
2022/01/08 11:04:33;;;;;;;8.05;3.63;;;3.10;99.90;;;;;;5057011;28;20048;-72
2022/01/08 11:07:01;;;;;;;10.20;4.03;;;3.10;99.90;;;;;;5056751;28;20041;-72
2022/01/08 11:09:28;;;;;;;9.35;4.40;;;3.10;99.90;;;;;;5044784;28;20045;-73
2022/01/08 11:11:56;;;;;;;6.75;3.40;;;3.10;99.90;;;;;;5040825;28;20434;-71
2022/01/08 11:17:19;;;;;;;9.90;4.30;;;3.10;99.90;;;;;;5063805;28;20044;-71
2022/01/08 11:19:50;;;;;;;9.35;3.70;;;3.20;99.90;;;;;;5058660;28;20488;-71
2022/01/08 11:22:18;;;;;;;11.30;4.45;;;3.20;99.90;;;;;;5064888;28;20098;-71
2022/01/08 11:24:55;;;;;;;9.50;4.28;;;3.20;99.90;;;;;;5091120;28;20102;-71
2022/01/08 11:27:24;;;;;;;9.88;4.68;;;3.30;99.90;;;;;;5044586;28;20080;-71
2022/01/08 11:29:58;;;;;;;9.35;4.30;;;3.30;99.90;;;;;;5060383;28;20059;-71
2022/01/08 11:32:26;;;;;;;11.35;4.32;;;3.40;99.90;;;;;;5050420;28;20495;-72
2022/01/08 11:34:53;;;;;;;11.90;4.18;;;3.40;99.90;;;;;;5096000;28;20124;-72
2022/01/08 11:37:22;;;;;;;7.85;4.18;;;3.40;99.90;;;;;;5051220;28;20040;-72
2022/01/08 11:39:50;;;;;;;8.70;4.20;;;3.40;99.90;;;;;;5059993;28;20045;-71
2022/01/08 11:42:19;;;;;;;10.05;4.43;;;3.40;99.90;;;;;;5065132;28;20071;-72
2022/01/08 11:44:46;;;;;;;8.93;4.43;;;3.50;99.90;;;;;;5046272;28;20049;-71
2022/01/08 11:47:12;;;;;;;10.95;5.03;;;3.50;99.90;;;;;;5077862;28;20075;-72
2022/01/08 11:49:41;;;;;;;15.40;5.55;;;3.50;99.90;;;;;;5041738;28;20036;-72
2022/01/08 11:52:14;;;;;;;11.32;5.00;;;3.50;99.90;;;;;;5066286;28;20118;-72
2022/01/08 11:54:41;;;;;;;10.40;4.97;;;3.50;99.90;;;;;;5057342;28;20067;-72
2022/01/08 11:57:28;;;;;;;10.52;5.05;;;3.60;99.90;;;;;;5053924;28;20048;-72
2022/01/08 11:59:59;;;;;;;9.80;4.60;;;3.60;99.90;;;;;;5087138;28;20049;-72
2022/01/08 12:02:39;;;;;;;10.70;5.05;;;3.60;99.90;;;;;;5056570;28;20163;-74
2022/01/08 12:05:08;;;;;;;9.23;4.82;;;3.70;99.90;;;;;;5049321;28;20504;-72
2022/01/08 12:07:39;;;;;;;10.00;4.85;;;3.70;99.90;;;;;;5049654;28;20049;-71
2022/01/08 12:10:13;;;;;;;9.05;4.85;;;3.60;99.90;;;;;;5061317;28;20445;-71
2022/01/08 12:12:54;;;;;;;13.38;4.97;;;3.70;99.90;;;;;;5066828;28;20044;-72
2022/01/08 12:15:41;;;;;;;8.07;4.82;;;3.70;99.90;;;;;;5061743;28;20041;-72
2022/01/08 12:18:12;;;;;;;8.98;5.03;;;3.70;99.90;;;;;;5050256;28;20044;-72
2022/01/08 12:20:39;;;;;;;10.98;5.03;;;3.70;99.90;;;;;;5066555;28;20170;-72
2022/01/08 12:23:26;;;;;;;9.05;4.85;;;3.70;99.90;;;;;;5075675;28;20139;-73
2022/01/08 12:25:53;;;;;;;10.00;5.57;;;3.80;99.90;;;;;;5049845;28;20403;-72
2022/01/08 12:28:53;;;;;;;11.30;5.57;;;3.80;99.90;;;;;;5051375;28;20025;-72
2022/01/08 12:31:47;;;;;;;13.90;5.85;;;3.70;99.90;;;;;;5058234;28;20437;-71
2022/01/08 12:34:37;;;;;;;11.57;5.70;;;3.80;99.90;;;;;;5049100;28;20416;-71
2022/01/08 12:37:11;;;;;;;12.55;6.05;;;3.80;99.90;;;;;;5051604;28;20526;-71
2022/01/08 12:39:43;;;;;;;12.27;6.28;;;3.80;99.90;;;;;;5051403;28;20044;-72
2022/01/08 12:42:24;;;;;;;10.10;6.00;;;3.80;99.90;;;;;;5049466;28;20437;-73
2022/01/08 12:45:01;;;;;;;9.45;5.95;;;3.80;99.90;;;;;;5050585;28;20079;-72
2022/01/08 12:47:39;;;;;;;12.48;6.50;;;3.80;99.90;;;;;;5034074;28;20061;-73
2022/01/08 12:50:31;;;;;;;11.68;7.53;;;3.90;99.90;;;;;;5070764;28;20040;-73
2022/01/08 12:53:06;;;;;;;13.57;8.27;;;3.80;99.90;;;;;;5049010;28;20522;-72
2022/01/08 12:55:37;;;;;;;13.57;7.57;;;3.80;99.90;;;;;;5084659;28;20087;-72
2022/01/08 12:58:16;;;;;;;18.52;7.85;;;3.80;99.90;;;;;;5069385;28;20139;-72
2022/01/08 13:01:05;;;;;;;10.80;7.93;;;3.80;99.90;;;;;;5060199;28;20040;-72
2022/01/08 13:03:38;;;;;;;16.95;8.35;;;3.80;99.90;;;;;;5050328;28;20170;-72
2022/01/08 13:06:10;;;;;;;17.15;8.98;;;3.80;99.90;;;;;;5053155;28;20043;-72
2022/01/08 13:08:36;;;;;;;11.32;8.07;;;3.80;99.90;;;;;;5060319;28;20036;-79
2022/01/08 13:11:07;;;;;;;13.00;9.40;;;3.90;99.90;;;;;;5058988;28;20034;-71
2022/01/08 13:14:00;;;;;;;17.02;9.73;;;3.90;99.90;;;;;;5056117;28;20466;-71
2022/01/08 13:16:42;;;;;;;13.80;9.75;;;3.90;99.90;;;;;;5060474;28;20449;-71
2022/01/08 13:19:10;;;;;;;14.35;9.52;;;3.90;99.90;;;;;;5066418;28;20044;-71
2022/01/08 13:21:42;;;;;;;13.65;9.07;;;3.90;99.90;;;;;;5058073;28;20040;-72
2022/01/08 13:24:15;;;;;;;15.15;10.02;;;3.90;99.90;;;;;;5053823;28;20495;-71
2022/01/08 13:26:43;;;;;;;13.45;9.27;;;3.90;99.90;;;;;;5063606;28;20046;-71
2022/01/08 13:29:36;;;;;;;14.68;9.85;;;3.90;99.90;;;;;;5052039;28;20517;-71
2022/01/08 13:32:05;;;;;;;15.30;10.57;;;3.90;99.90;;;;;;5070389;28;20094;-71